sensor_id;sensor_type;location;lat;lon;timestamp;P1;durP1;ratioP1;P2;durP2;ratioP2
10641;SDS011;5369;49.586;8.646;2023-01-19T00:01:13;18.87;;;10.67;;
10641;SDS011;5369;49.586;8.646;2023-01-19T00:03:39;17.03;;;9.47;;
10641;SDS011;5369;49.586;8.646;2023-01-19T00:06:06;15.10;;;8.93;;
10641;SDS011;5369;49.586;8.646;2023-01-19T00:08:32;14.40;;;9.27;;
10641;SDS011;5369;49.586;8.646;2023-01-19T00:10:59;16.40;;;10.63;;
10641;SDS011;5369;49.586;8.646;2023-01-19T00:13:26;15.33;;;9.63;;
10641;SDS011;5369;49.586;8.646;2023-01-19T00:15:52;15.33;;;9.17;;
10641;SDS011;5369;49.586;8.646;2023-01-19T00:18:18;15.40;;;10.50;;
10641;SDS011;5369;49.586;8.646;2023-01-19T00:20:44;16.57;;;9.90;;
10641;SDS011;5369;49.586;8.646;2023-01-19T00:23:11;16.63;;;10.40;;
10641;SDS011;5369;49.586;8.646;2023-01-19T00:25:38;20.60;;;11.67;;
10641;SDS011;5369;49.586;8.646;2023-01-19T00:28:10;17.80;;;10.70;;
10641;SDS011;5369;49.586;8.646;2023-01-19T00:30:36;23.70;;;13.70;;
10641;SDS011;5369;49.586;8.646;2023-01-19T00:33:03;22.77;;;12.50;;
10641;SDS011;5369;49.586;8.646;2023-01-19T00:35:29;21.20;;;12.57;;
10641;SDS011;5369;49.586;8.646;2023-01-19T00:37:56;19.13;;;11.77;;
10641;SDS011;5369;49.586;8.646;2023-01-19T00:40:22;20.00;;;11.90;;
10641;SDS011;5369;49.586;8.646;2023-01-19T00:42:48;19.40;;;10.57;;
10641;SDS011;5369;49.586;8.646;2023-01-19T00:45:19;15.20;;;9.93;;
10641;SDS011;5369;49.586;8.646;2023-01-19T00:47:46;14.83;;;9.37;;
10641;SDS011;5369;49.586;8.646;2023-01-19T00:50:13;17.73;;;10.80;;
10641;SDS011;5369;49.586;8.646;2023-01-19T00:52:43;14.83;;;10.03;;
10641;SDS011;5369;49.586;8.646;2023-01-19T00:55:10;17.90;;;11.13;;
10641;SDS011;5369;49.586;8.646;2023-01-19T00:57:37;18.37;;;10.83;;
10641;SDS011;5369;49.586;8.646;2023-01-19T01:00:04;18.50;;;10.23;;
10641;SDS011;5369;49.586;8.646;2023-01-19T01:02:32;23.97;;;13.03;;
10641;SDS011;5369;49.586;8.646;2023-01-19T01:04:58;23.27;;;12.80;;
10641;SDS011;5369;49.586;8.646;2023-01-19T01:07:27;17.20;;;10.37;;
10641;SDS011;5369;49.586;8.646;2023-01-19T01:09:53;20.60;;;12.13;;
10641;SDS011;5369;49.586;8.646;2023-01-19T01:12:22;18.27;;;10.73;;
10641;SDS011;5369;49.586;8.646;2023-01-19T01:14:53;16.17;;;11.40;;
10641;SDS011;5369;49.586;8.646;2023-01-19T01:17:19;16.03;;;10.77;;
10641;SDS011;5369;49.586;8.646;2023-01-19T01:19:49;17.23;;;11.27;;
10641;SDS011;5369;49.586;8.646;2023-01-19T01:22:16;18.80;;;11.67;;
10641;SDS011;5369;49.586;8.646;2023-01-19T01:24:42;27.40;;;14.70;;
10641;SDS011;5369;49.586;8.646;2023-01-19T01:27:09;20.83;;;12.70;;
10641;SDS011;5369;49.586;8.646;2023-01-19T01:29:35;26.37;;;13.23;;
10641;SDS011;5369;49.586;8.646;2023-01-19T01:32:03;26.43;;;14.60;;
10641;SDS011;5369;49.586;8.646;2023-01-19T01:34:29;17.60;;;11.47;;
10641;SDS011;5369;49.586;8.646;2023-01-19T01:36:56;30.10;;;16.30;;
10641;SDS011;5369;49.586;8.646;2023-01-19T01:39:22;26.83;;;14.60;;
10641;SDS011;5369;49.586;8.646;2023-01-19T01:41:48;23.93;;;13.37;;
10641;SDS011;5369;49.586;8.646;2023-01-19T01:47:02;20.73;;;13.00;;
10641;SDS011;5369;49.586;8.646;2023-01-19T01:49:28;17.47;;;12.10;;
10641;SDS011;5369;49.586;8.646;2023-01-19T01:51:55;20.93;;;12.90;;
10641;SDS011;5369;49.586;8.646;2023-01-19T01:54:30;33.80;;;18.20;;
10641;SDS011;5369;49.586;8.646;2023-01-19T01:57:01;23.13;;;13.90;;
10641;SDS011;5369;49.586;8.646;2023-01-19T01:59:33;21.07;;;13.20;;
10641;SDS011;5369;49.586;8.646;2023-01-19T02:02:10;22.07;;;13.30;;
10641;SDS011;5369;49.586;8.646;2023-01-19T02:04:57;21.10;;;13.50;;
10641;SDS011;5369;49.586;8.646;2023-01-19T02:08:11;31.13;;;18.00;;
10641;SDS011;5369;49.586;8.646;2023-01-19T02:10:35;28.67;;;18.40;;
10641;SDS011;5369;49.586;8.646;2023-01-19T02:13:20;23.70;;;15.90;;
10641;SDS011;5369;49.586;8.646;2023-01-19T02:15:50;27.40;;;15.73;;
10641;SDS011;5369;49.586;8.646;2023-01-19T02:18:18;24.07;;;14.23;;
10641;SDS011;5369;49.586;8.646;2023-01-19T02:21:34;20.03;;;12.80;;
10641;SDS011;5369;49.586;8.646;2023-01-19T02:23:39;23.37;;;14.40;;
10641;SDS011;5369;49.586;8.646;2023-01-19T02:26:08;20.73;;;13.40;;
10641;SDS011;5369;49.586;8.646;2023-01-19T02:28:42;28.07;;;15.63;;
10641;SDS011;5369;49.586;8.646;2023-01-19T02:31:10;22.13;;;13.83;;
10641;SDS011;5369;49.586;8.646;2023-01-19T02:33:36;23.83;;;14.90;;
10641;SDS011;5369;49.586;8.646;2023-01-19T02:36:03;21.10;;;14.17;;
10641;SDS011;5369;49.586;8.646;2023-01-19T02:38:32;23.03;;;14.17;;
10641;SDS011;5369;49.586;8.646;2023-01-19T02:40:59;22.77;;;15.10;;
10641;SDS011;5369;49.586;8.646;2023-01-19T02:43:26;23.10;;;14.50;;
10641;SDS011;5369;49.586;8.646;2023-01-19T02:45:53;22.23;;;14.93;;
10641;SDS011;5369;49.586;8.646;2023-01-19T02:48:20;21.40;;;14.43;;
10641;SDS011;5369;49.586;8.646;2023-01-19T02:50:57;24.13;;;15.17;;
10641;SDS011;5369;49.586;8.646;2023-01-19T02:56:11;24.13;;;15.53;;
10641;SDS011;5369;49.586;8.646;2023-01-19T02:58:44;19.63;;;13.97;;
10641;SDS011;5369;49.586;8.646;2023-01-19T03:01:26;24.90;;;14.70;;
10641;SDS011;5369;49.586;8.646;2023-01-19T03:04:02;21.87;;;14.47;;
10641;SDS011;5369;49.586;8.646;2023-01-19T03:06:36;20.03;;;13.67;;
10641;SDS011;5369;49.586;8.646;2023-01-19T03:09:11;20.20;;;13.63;;
10641;SDS011;5369;49.586;8.646;2023-01-19T03:11:38;27.87;;;16.37;;
10641;SDS011;5369;49.586;8.646;2023-01-19T03:14:08;22.67;;;14.37;;
10641;SDS011;5369;49.586;8.646;2023-01-19T03:16:35;20.93;;;14.93;;
10641;SDS011;5369;49.586;8.646;2023-01-19T03:19:04;23.43;;;14.47;;
10641;SDS011;5369;49.586;8.646;2023-01-19T03:21:33;21.63;;;15.00;;
10641;SDS011;5369;49.586;8.646;2023-01-19T03:24:01;21.00;;;13.67;;
10641;SDS011;5369;49.586;8.646;2023-01-19T03:26:27;20.27;;;13.80;;
10641;SDS011;5369;49.586;8.646;2023-01-19T03:28:56;21.77;;;14.67;;
10641;SDS011;5369;49.586;8.646;2023-01-19T03:31:23;22.57;;;14.10;;
10641;SDS011;5369;49.586;8.646;2023-01-19T03:33:55;21.87;;;14.67;;
10641;SDS011;5369;49.586;8.646;2023-01-19T03:37:04;21.03;;;14.20;;
10641;SDS011;5369;49.586;8.646;2023-01-19T03:39:11;21.13;;;14.33;;
10641;SDS011;5369;49.586;8.646;2023-01-19T03:41:39;22.43;;;14.97;;
10641;SDS011;5369;49.586;8.646;2023-01-19T03:44:06;21.17;;;14.40;;
10641;SDS011;5369;49.586;8.646;2023-01-19T03:46:32;22.47;;;14.10;;
10641;SDS011;5369;49.586;8.646;2023-01-19T03:48:58;22.80;;;15.40;;
10641;SDS011;5369;49.586;8.646;2023-01-19T03:51:25;21.60;;;15.07;;
10641;SDS011;5369;49.586;8.646;2023-01-19T03:53:52;24.17;;;14.40;;
10641;SDS011;5369;49.586;8.646;2023-01-19T03:56:19;21.90;;;14.43;;
10641;SDS011;5369;49.586;8.646;2023-01-19T03:58:45;23.60;;;16.07;;
10641;SDS011;5369;49.586;8.646;2023-01-19T04:01:12;22.03;;;14.27;;
10641;SDS011;5369;49.586;8.646;2023-01-19T04:03:39;20.27;;;14.17;;
10641;SDS011;5369;49.586;8.646;2023-01-19T04:06:05;20.03;;;13.83;;
10641;SDS011;5369;49.586;8.646;2023-01-19T04:08:32;21.37;;;14.77;;
10641;SDS011;5369;49.586;8.646;2023-01-19T04:10:58;21.50;;;14.63;;
10641;SDS011;5369;49.586;8.646;2023-01-19T04:13:24;23.50;;;14.80;;
10641;SDS011;5369;49.586;8.646;2023-01-19T04:15:52;20.23;;;13.80;;
10641;SDS011;5369;49.586;8.646;2023-01-19T04:18:19;21.17;;;13.73;;
10641;SDS011;5369;49.586;8.646;2023-01-19T04:20:45;23.43;;;13.80;;
10641;SDS011;5369;49.586;8.646;2023-01-19T04:23:11;41.13;;;18.87;;
10641;SDS011;5369;49.586;8.646;2023-01-19T04:25:37;37.73;;;19.37;;
10641;SDS011;5369;49.586;8.646;2023-01-19T04:28:04;35.90;;;19.33;;
10641;SDS011;5369;49.586;8.646;2023-01-19T04:30:30;24.97;;;15.47;;
10641;SDS011;5369;49.586;8.646;2023-01-19T04:32:57;27.30;;;15.70;;
10641;SDS011;5369;49.586;8.646;2023-01-19T04:35:23;20.87;;;14.10;;
10641;SDS011;5369;49.586;8.646;2023-01-19T04:37:49;25.70;;;14.83;;
10641;SDS011;5369;49.586;8.646;2023-01-19T04:40:15;22.13;;;13.87;;
10641;SDS011;5369;49.586;8.646;2023-01-19T04:42:42;23.47;;;14.93;;
10641;SDS011;5369;49.586;8.646;2023-01-19T04:45:10;19.50;;;13.03;;
10641;SDS011;5369;49.586;8.646;2023-01-19T04:47:36;22.80;;;14.70;;
10641;SDS011;5369;49.586;8.646;2023-01-19T04:50:02;20.30;;;13.67;;
10641;SDS011;5369;49.586;8.646;2023-01-19T04:52:33;19.47;;;13.63;;
10641;SDS011;5369;49.586;8.646;2023-01-19T04:55:00;22.73;;;14.27;;
10641;SDS011;5369;49.586;8.646;2023-01-19T04:57:27;29.70;;;17.17;;
10641;SDS011;5369;49.586;8.646;2023-01-19T04:59:54;19.57;;;14.23;;
10641;SDS011;5369;49.586;8.646;2023-01-19T05:02:20;19.23;;;13.67;;
10641;SDS011;5369;49.586;8.646;2023-01-19T05:04:46;19.83;;;13.93;;
10641;SDS011;5369;49.586;8.646;2023-01-19T05:07:13;22.88;;;14.93;;
10641;SDS011;5369;49.586;8.646;2023-01-19T05:09:39;23.37;;;15.63;;
10641;SDS011;5369;49.586;8.646;2023-01-19T05:12:05;20.37;;;14.03;;
10641;SDS011;5369;49.586;8.646;2023-01-19T05:14:31;22.37;;;14.37;;
10641;SDS011;5369;49.586;8.646;2023-01-19T05:16:57;20.17;;;13.07;;
10641;SDS011;5369;49.586;8.646;2023-01-19T05:19:24;22.37;;;15.00;;
10641;SDS011;5369;49.586;8.646;2023-01-19T05:21:50;19.57;;;13.93;;
10641;SDS011;5369;49.586;8.646;2023-01-19T05:24:16;19.77;;;13.73;;
10641;SDS011;5369;49.586;8.646;2023-01-19T05:26:43;21.67;;;15.68;;
10641;SDS011;5369;49.586;8.646;2023-01-19T05:29:10;21.10;;;14.33;;
10641;SDS011;5369;49.586;8.646;2023-01-19T05:31:36;22.23;;;14.70;;
10641;SDS011;5369;49.586;8.646;2023-01-19T05:34:03;21.57;;;14.47;;
10641;SDS011;5369;49.586;8.646;2023-01-19T05:36:29;20.17;;;14.47;;
10641;SDS011;5369;49.586;8.646;2023-01-19T05:38:55;22.97;;;15.33;;
10641;SDS011;5369;49.586;8.646;2023-01-19T05:41:21;22.40;;;15.03;;
10641;SDS011;5369;49.586;8.646;2023-01-19T05:43:48;21.20;;;15.17;;
10641;SDS011;5369;49.586;8.646;2023-01-19T05:46:14;22.43;;;14.87;;
10641;SDS011;5369;49.586;8.646;2023-01-19T05:48:40;22.50;;;17.10;;
10641;SDS011;5369;49.586;8.646;2023-01-19T05:51:06;23.35;;;17.63;;
10641;SDS011;5369;49.586;8.646;2023-01-19T05:53:33;22.67;;;17.07;;
10641;SDS011;5369;49.586;8.646;2023-01-19T05:56:03;25.53;;;16.83;;
10641;SDS011;5369;49.586;8.646;2023-01-19T05:58:30;22.97;;;16.27;;
10641;SDS011;5369;49.586;8.646;2023-01-19T06:00:56;25.27;;;15.80;;
10641;SDS011;5369;49.586;8.646;2023-01-19T06:03:22;23.27;;;16.00;;
10641;SDS011;5369;49.586;8.646;2023-01-19T06:05:48;22.43;;;15.57;;
10641;SDS011;5369;49.586;8.646;2023-01-19T06:08:14;21.57;;;15.27;;
10641;SDS011;5369;49.586;8.646;2023-01-19T06:10:40;24.27;;;15.70;;
10641;SDS011;5369;49.586;8.646;2023-01-19T06:13:07;22.50;;;15.60;;
10641;SDS011;5369;49.586;8.646;2023-01-19T06:15:35;22.57;;;15.00;;
10641;SDS011;5369;49.586;8.646;2023-01-19T06:18:01;22.15;;;15.65;;
10641;SDS011;5369;49.586;8.646;2023-01-19T06:20:27;23.60;;;15.13;;
10641;SDS011;5369;49.586;8.646;2023-01-19T06:22:57;21.23;;;14.80;;
10641;SDS011;5369;49.586;8.646;2023-01-19T06:25:23;19.60;;;13.80;;
10641;SDS011;5369;49.586;8.646;2023-01-19T06:27:50;20.73;;;14.40;;
10641;SDS011;5369;49.586;8.646;2023-01-19T06:30:16;22.63;;;14.53;;
10641;SDS011;5369;49.586;8.646;2023-01-19T06:32:42;21.60;;;15.63;;
10641;SDS011;5369;49.586;8.646;2023-01-19T06:35:08;20.92;;;16.38;;
10641;SDS011;5369;49.586;8.646;2023-01-19T06:37:35;21.20;;;15.77;;
10641;SDS011;5369;49.586;8.646;2023-01-19T06:40:01;25.23;;;15.20;;
10641;SDS011;5369;49.586;8.646;2023-01-19T06:42:27;21.83;;;15.77;;
10641;SDS011;5369;49.586;8.646;2023-01-19T06:44:53;24.93;;;15.57;;
10641;SDS011;5369;49.586;8.646;2023-01-19T06:47:20;21.70;;;15.77;;
10641;SDS011;5369;49.586;8.646;2023-01-19T06:49:46;24.07;;;15.63;;
10641;SDS011;5369;49.586;8.646;2023-01-19T06:52:13;21.85;;;17.38;;
10641;SDS011;5369;49.586;8.646;2023-01-19T06:54:41;28.40;;;16.60;;
10641;SDS011;5369;49.586;8.646;2023-01-19T06:57:08;21.73;;;15.83;;
10641;SDS011;5369;49.586;8.646;2023-01-19T06:59:38;22.00;;;15.30;;
10641;SDS011;5369;49.586;8.646;2023-01-19T07:02:04;23.90;;;16.77;;
10641;SDS011;5369;49.586;8.646;2023-01-19T07:04:31;23.40;;;15.80;;
10641;SDS011;5369;49.586;8.646;2023-01-19T07:07:01;23.53;;;15.67;;
10641;SDS011;5369;49.586;8.646;2023-01-19T07:09:28;23.05;;;17.35;;
10641;SDS011;5369;49.586;8.646;2023-01-19T07:11:54;21.70;;;16.85;;
10641;SDS011;5369;49.586;8.646;2023-01-19T07:14:20;19.23;;;15.20;;
10641;SDS011;5369;49.586;8.646;2023-01-19T07:16:46;23.33;;;15.03;;
10641;SDS011;5369;49.586;8.646;2023-01-19T07:19:12;23.73;;;15.90;;
10641;SDS011;5369;49.586;8.646;2023-01-19T07:21:39;22.00;;;16.03;;
10641;SDS011;5369;49.586;8.646;2023-01-19T07:24:05;27.23;;;16.73;;
10641;SDS011;5369;49.586;8.646;2023-01-19T07:26:31;23.70;;;15.73;;
10641;SDS011;5369;49.586;8.646;2023-01-19T07:28:57;24.70;;;16.00;;
10641;SDS011;5369;49.586;8.646;2023-01-19T07:31:23;23.77;;;15.73;;
10641;SDS011;5369;49.586;8.646;2023-01-19T07:33:50;24.73;;;17.33;;
10641;SDS011;5369;49.586;8.646;2023-01-19T07:36:16;24.13;;;16.57;;
10641;SDS011;5369;49.586;8.646;2023-01-19T07:38:42;23.63;;;16.40;;
10641;SDS011;5369;49.586;8.646;2023-01-19T07:41:08;23.87;;;15.90;;
10641;SDS011;5369;49.586;8.646;2023-01-19T07:43:35;23.53;;;15.70;;
10641;SDS011;5369;49.586;8.646;2023-01-19T07:46:03;23.23;;;14.87;;
10641;SDS011;5369;49.586;8.646;2023-01-19T07:48:29;25.30;;;15.63;;
10641;SDS011;5369;49.586;8.646;2023-01-19T07:50:59;22.77;;;15.33;;
10641;SDS011;5369;49.586;8.646;2023-01-19T07:53:26;26.60;;;15.13;;
10641;SDS011;5369;49.586;8.646;2023-01-19T07:55:55;21.33;;;14.47;;
10641;SDS011;5369;49.586;8.646;2023-01-19T07:58:22;24.67;;;15.33;;
10641;SDS011;5369;49.586;8.646;2023-01-19T08:00:48;20.73;;;14.73;;
10641;SDS011;5369;49.586;8.646;2023-01-19T08:03:15;21.40;;;14.50;;
10641;SDS011;5369;49.586;8.646;2023-01-19T08:05:42;18.00;;;13.10;;
10641;SDS011;5369;49.586;8.646;2023-01-19T08:08:08;19.73;;;13.87;;
10641;SDS011;5369;49.586;8.646;2023-01-19T08:10:35;23.00;;;14.83;;
10641;SDS011;5369;49.586;8.646;2023-01-19T08:13:01;20.13;;;14.70;;
10641;SDS011;5369;49.586;8.646;2023-01-19T08:15:27;20.03;;;13.93;;
10641;SDS011;5369;49.586;8.646;2023-01-19T08:17:57;19.60;;;13.83;;
10641;SDS011;5369;49.586;8.646;2023-01-19T08:20:24;19.67;;;14.20;;
10641;SDS011;5369;49.586;8.646;2023-01-19T08:22:51;22.30;;;14.73;;
10641;SDS011;5369;49.586;8.646;2023-01-19T08:25:37;23.43;;;15.33;;
10641;SDS011;5369;49.586;8.646;2023-01-19T08:28:05;22.37;;;14.70;;
10641;SDS011;5369;49.586;8.646;2023-01-19T08:30:32;20.77;;;14.30;;
10641;SDS011;5369;49.586;8.646;2023-01-19T08:32:58;21.27;;;14.07;;
10641;SDS011;5369;49.586;8.646;2023-01-19T08:35:34;21.70;;;14.70;;
10641;SDS011;5369;49.586;8.646;2023-01-19T08:38:01;19.47;;;13.13;;
10641;SDS011;5369;49.586;8.646;2023-01-19T08:40:29;21.63;;;14.43;;
10641;SDS011;5369;49.586;8.646;2023-01-19T08:42:58;19.50;;;14.17;;
10641;SDS011;5369;49.586;8.646;2023-01-19T08:45:29;21.30;;;14.70;;
10641;SDS011;5369;49.586;8.646;2023-01-19T08:47:55;24.67;;;14.83;;
10641;SDS011;5369;49.586;8.646;2023-01-19T08:50:28;19.83;;;14.13;;
10641;SDS011;5369;49.586;8.646;2023-01-19T08:52:56;19.00;;;14.30;;
10641;SDS011;5369;49.586;8.646;2023-01-19T08:55:23;22.00;;;15.03;;
10641;SDS011;5369;49.586;8.646;2023-01-19T08:57:50;26.87;;;15.60;;
10641;SDS011;5369;49.586;8.646;2023-01-19T09:00:17;20.43;;;14.23;;
10641;SDS011;5369;49.586;8.646;2023-01-19T09:02:43;21.63;;;14.93;;
10641;SDS011;5369;49.586;8.646;2023-01-19T09:05:09;22.80;;;14.60;;
10641;SDS011;5369;49.586;8.646;2023-01-19T09:07:35;22.20;;;14.97;;
10641;SDS011;5369;49.586;8.646;2023-01-19T09:10:04;20.80;;;13.77;;
10641;SDS011;5369;49.586;8.646;2023-01-19T09:12:31;23.40;;;13.93;;
10641;SDS011;5369;49.586;8.646;2023-01-19T09:14:57;18.93;;;13.87;;
10641;SDS011;5369;49.586;8.646;2023-01-19T09:17:23;21.30;;;14.30;;
10641;SDS011;5369;49.586;8.646;2023-01-19T09:19:49;21.97;;;14.53;;
10641;SDS011;5369;49.586;8.646;2023-01-19T09:22:15;20.03;;;14.13;;
10641;SDS011;5369;49.586;8.646;2023-01-19T09:24:42;20.70;;;14.10;;
10641;SDS011;5369;49.586;8.646;2023-01-19T09:27:08;20.70;;;14.77;;
10641;SDS011;5369;49.586;8.646;2023-01-19T09:29:34;19.97;;;14.43;;
10641;SDS011;5369;49.586;8.646;2023-01-19T09:32:00;20.70;;;14.23;;
10641;SDS011;5369;49.586;8.646;2023-01-19T09:34:27;20.17;;;13.60;;
10641;SDS011;5369;49.586;8.646;2023-01-19T09:36:53;20.40;;;13.57;;
10641;SDS011;5369;49.586;8.646;2023-01-19T09:39:19;21.33;;;14.73;;
10641;SDS011;5369;49.586;8.646;2023-01-19T09:41:47;18.90;;;13.67;;
10641;SDS011;5369;49.586;8.646;2023-01-19T09:44:27;17.30;;;13.13;;
10641;SDS011;5369;49.586;8.646;2023-01-19T09:46:53;20.17;;;14.53;;
10641;SDS011;5369;49.586;8.646;2023-01-19T09:49:24;18.27;;;13.17;;
10641;SDS011;5369;49.586;8.646;2023-01-19T09:51:53;18.23;;;13.13;;
10641;SDS011;5369;49.586;8.646;2023-01-19T09:54:30;19.33;;;13.73;;
10641;SDS011;5369;49.586;8.646;2023-01-19T09:57:00;20.67;;;13.57;;
10641;SDS011;5369;49.586;8.646;2023-01-19T09:59:30;22.73;;;14.30;;
10641;SDS011;5369;49.586;8.646;2023-01-19T10:06:53;19.27;;;13.70;;
10641;SDS011;5369;49.586;8.646;2023-01-19T10:09:24;18.57;;;13.20;;
10641;SDS011;5369;49.586;8.646;2023-01-19T10:11:57;21.00;;;14.57;;
10641;SDS011;5369;49.586;8.646;2023-01-19T10:14:35;20.43;;;13.53;;
10641;SDS011;5369;49.586;8.646;2023-01-19T10:19:39;19.93;;;13.50;;
10641;SDS011;5369;49.586;8.646;2023-01-19T10:22:15;19.77;;;13.43;;
10641;SDS011;5369;49.586;8.646;2023-01-19T10:24:43;19.07;;;13.50;;
10641;SDS011;5369;49.586;8.646;2023-01-19T10:27:17;19.57;;;13.53;;
10641;SDS011;5369;49.586;8.646;2023-01-19T10:29:44;21.00;;;14.67;;
10641;SDS011;5369;49.586;8.646;2023-01-19T10:32:15;21.33;;;14.27;;
10641;SDS011;5369;49.586;8.646;2023-01-19T10:34:42;19.73;;;13.97;;
10641;SDS011;5369;49.586;8.646;2023-01-19T10:37:15;19.30;;;13.70;;
10641;SDS011;5369;49.586;8.646;2023-01-19T10:39:45;21.23;;;13.67;;
10641;SDS011;5369;49.586;8.646;2023-01-19T10:42:14;23.40;;;14.80;;
10641;SDS011;5369;49.586;8.646;2023-01-19T10:44:41;21.10;;;14.57;;
10641;SDS011;5369;49.586;8.646;2023-01-19T10:47:14;21.27;;;14.30;;
10641;SDS011;5369;49.586;8.646;2023-01-19T10:49:41;19.30;;;14.20;;
10641;SDS011;5369;49.586;8.646;2023-01-19T10:52:18;19.87;;;13.70;;
10641;SDS011;5369;49.586;8.646;2023-01-19T10:54:45;19.37;;;13.13;;
10641;SDS011;5369;49.586;8.646;2023-01-19T10:57:12;19.43;;;13.73;;
10641;SDS011;5369;49.586;8.646;2023-01-19T10:59:48;19.33;;;13.77;;
10641;SDS011;5369;49.586;8.646;2023-01-19T11:02:22;20.27;;;13.40;;
10641;SDS011;5369;49.586;8.646;2023-01-19T11:04:52;18.67;;;13.70;;
10641;SDS011;5369;49.586;8.646;2023-01-19T11:09:46;19.43;;;13.80;;
10641;SDS011;5369;49.586;8.646;2023-01-19T11:12:16;20.27;;;14.47;;
10641;SDS011;5369;49.586;8.646;2023-01-19T11:14:43;17.63;;;12.83;;
10641;SDS011;5369;49.586;8.646;2023-01-19T11:17:15;19.00;;;13.53;;
10641;SDS011;5369;49.586;8.646;2023-01-19T11:19:43;21.50;;;14.23;;
10641;SDS011;5369;49.586;8.646;2023-01-19T11:22:19;19.80;;;13.53;;
10641;SDS011;5369;49.586;8.646;2023-01-19T11:24:47;18.97;;;13.60;;
10641;SDS011;5369;49.586;8.646;2023-01-19T11:27:18;18.43;;;13.00;;
10641;SDS011;5369;49.586;8.646;2023-01-19T11:29:48;21.20;;;14.07;;
10641;SDS011;5369;49.586;8.646;2023-01-19T11:32:19;18.67;;;13.40;;
10641;SDS011;5369;49.586;8.646;2023-01-19T11:34:46;21.37;;;13.20;;
10641;SDS011;5369;49.586;8.646;2023-01-19T11:39:46;18.87;;;14.13;;
10641;SDS011;5369;49.586;8.646;2023-01-19T11:42:12;19.67;;;13.20;;
10641;SDS011;5369;49.586;8.646;2023-01-19T11:44:46;19.13;;;13.43;;
10641;SDS011;5369;49.586;8.646;2023-01-19T11:47:15;20.20;;;13.80;;
10641;SDS011;5369;49.586;8.646;2023-01-19T11:52:12;21.77;;;13.00;;
10641;SDS011;5369;49.586;8.646;2023-01-19T11:54:42;22.83;;;14.10;;
10641;SDS011;5369;49.586;8.646;2023-01-19T11:57:14;16.40;;;12.90;;
10641;SDS011;5369;49.586;8.646;2023-01-19T11:59:44;20.87;;;14.77;;
10641;SDS011;5369;49.586;8.646;2023-01-19T12:02:57;17.00;;;12.70;;
10641;SDS011;5369;49.586;8.646;2023-01-19T12:04:58;18.53;;;12.57;;
10641;SDS011;5369;49.586;8.646;2023-01-19T12:07:28;18.60;;;13.00;;
10641;SDS011;5369;49.586;8.646;2023-01-19T12:10:05;25.03;;;17.87;;
10641;SDS011;5369;49.586;8.646;2023-01-19T12:12:32;20.10;;;14.27;;
10641;SDS011;5369;49.586;8.646;2023-01-19T12:17:28;16.77;;;12.77;;
10641;SDS011;5369;49.586;8.646;2023-01-19T12:20:02;16.70;;;12.80;;
10641;SDS011;5369;49.586;8.646;2023-01-19T12:22:28;20.13;;;14.13;;
10641;SDS011;5369;49.586;8.646;2023-01-19T12:25:01;19.80;;;13.77;;
10641;SDS011;5369;49.586;8.646;2023-01-19T12:27:39;19.80;;;12.50;;
10641;SDS011;5369;49.586;8.646;2023-01-19T12:30:27;18.57;;;13.20;;
10641;SDS011;5369;49.586;8.646;2023-01-19T12:32:54;19.20;;;12.47;;
10641;SDS011;5369;49.586;8.646;2023-01-19T12:51:39;17.93;;;12.13;;
10641;SDS011;5369;49.586;8.646;2023-01-19T12:54:06;17.17;;;12.83;;
10641;SDS011;5369;49.586;8.646;2023-01-19T12:56:35;19.10;;;13.17;;
10641;SDS011;5369;49.586;8.646;2023-01-19T12:59:02;20.27;;;12.67;;
10641;SDS011;5369;49.586;8.646;2023-01-19T13:01:28;19.70;;;13.23;;
10641;SDS011;5369;49.586;8.646;2023-01-19T13:04:02;20.37;;;13.37;;
10641;SDS011;5369;49.586;8.646;2023-01-19T13:14:39;19.07;;;13.30;;
10641;SDS011;5369;49.586;8.646;2023-01-19T13:17:16;18.93;;;12.97;;
10641;SDS011;5369;49.586;8.646;2023-01-19T13:19:48;16.07;;;12.27;;
10641;SDS011;5369;49.586;8.646;2023-01-19T13:25:06;16.63;;;12.00;;
10641;SDS011;5369;49.586;8.646;2023-01-19T13:27:33;15.07;;;11.37;;
10641;SDS011;5369;49.586;8.646;2023-01-19T13:30:00;18.90;;;12.77;;
10641;SDS011;5369;49.586;8.646;2023-01-19T13:32:26;17.10;;;12.10;;
10641;SDS011;5369;49.586;8.646;2023-01-19T13:34:54;19.43;;;12.47;;
10641;SDS011;5369;49.586;8.646;2023-01-19T13:37:24;16.37;;;11.27;;
10641;SDS011;5369;49.586;8.646;2023-01-19T13:39:51;16.07;;;11.03;;
10641;SDS011;5369;49.586;8.646;2023-01-19T13:42:28;12.60;;;10.77;;
10641;SDS011;5369;49.586;8.646;2023-01-19T13:44:57;16.97;;;11.50;;
10641;SDS011;5369;49.586;8.646;2023-01-19T13:47:28;16.50;;;11.13;;
10641;SDS011;5369;49.586;8.646;2023-01-19T13:49:57;17.03;;;11.40;;
10641;SDS011;5369;49.586;8.646;2023-01-19T13:52:25;14.43;;;11.00;;
10641;SDS011;5369;49.586;8.646;2023-01-19T13:54:52;16.80;;;10.97;;
10641;SDS011;5369;49.586;8.646;2023-01-19T13:57:29;15.20;;;11.63;;
10641;SDS011;5369;49.586;8.646;2023-01-19T14:05:25;15.73;;;10.70;;
10641;SDS011;5369;49.586;8.646;2023-01-19T14:08:01;14.00;;;11.03;;
10641;SDS011;5369;49.586;8.646;2023-01-19T14:10:27;15.13;;;10.63;;
10641;SDS011;5369;49.586;8.646;2023-01-19T14:13:10;12.97;;;10.07;;
10641;SDS011;5369;49.586;8.646;2023-01-19T14:15:37;15.33;;;10.67;;
10641;SDS011;5369;49.586;8.646;2023-01-19T14:18:27;14.20;;;10.40;;
10641;SDS011;5369;49.586;8.646;2023-01-19T14:26:03;14.30;;;9.60;;
10641;SDS011;5369;49.586;8.646;2023-01-19T14:30:59;13.37;;;9.20;;
10641;SDS011;5369;49.586;8.646;2023-01-19T14:33:59;13.73;;;9.63;;
10641;SDS011;5369;49.586;8.646;2023-01-19T14:36:24;14.17;;;9.70;;
10641;SDS011;5369;49.586;8.646;2023-01-19T14:38:51;14.70;;;10.07;;
10641;SDS011;5369;49.586;8.646;2023-01-19T14:41:22;13.90;;;9.30;;
10641;SDS011;5369;49.586;8.646;2023-01-19T14:43:49;11.93;;;9.20;;
10641;SDS011;5369;49.586;8.646;2023-01-19T14:46:19;11.30;;;8.80;;
10641;SDS011;5369;49.586;8.646;2023-01-19T14:48:46;11.43;;;8.73;;
10641;SDS011;5369;49.586;8.646;2023-01-19T14:51:17;12.93;;;9.03;;
10641;SDS011;5369;49.586;8.646;2023-01-19T14:53:45;12.07;;;9.20;;
10641;SDS011;5369;49.586;8.646;2023-01-19T14:56:12;11.27;;;8.20;;
10641;SDS011;5369;49.586;8.646;2023-01-19T14:58:48;11.90;;;9.10;;
10641;SDS011;5369;49.586;8.646;2023-01-19T15:01:14;12.60;;;8.47;;
10641;SDS011;5369;49.586;8.646;2023-01-19T15:03:40;10.77;;;8.30;;
10641;SDS011;5369;49.586;8.646;2023-01-19T15:06:09;11.17;;;8.10;;
10641;SDS011;5369;49.586;8.646;2023-01-19T15:08:37;13.50;;;8.83;;
10641;SDS011;5369;49.586;8.646;2023-01-19T15:11:10;13.07;;;8.70;;
10641;SDS011;5369;49.586;8.646;2023-01-19T15:13:38;12.93;;;9.00;;
10641;SDS011;5369;49.586;8.646;2023-01-19T15:16:05;12.70;;;9.17;;
10641;SDS011;5369;49.586;8.646;2023-01-19T15:18:33;14.33;;;9.73;;
10641;SDS011;5369;49.586;8.646;2023-01-19T15:20:59;15.83;;;9.37;;
10641;SDS011;5369;49.586;8.646;2023-01-19T15:23:27;10.57;;;8.07;;
10641;SDS011;5369;49.586;8.646;2023-01-19T15:25:57;12.27;;;9.00;;
10641;SDS011;5369;49.586;8.646;2023-01-19T15:28:24;12.77;;;9.43;;
10641;SDS011;5369;49.586;8.646;2023-01-19T15:30:50;13.47;;;9.20;;
10641;SDS011;5369;49.586;8.646;2023-01-19T15:33:21;12.57;;;10.10;;
10641;SDS011;5369;49.586;8.646;2023-01-19T15:35:48;14.70;;;9.63;;
10641;SDS011;5369;49.586;8.646;2023-01-19T15:38:14;11.93;;;9.00;;
10641;SDS011;5369;49.586;8.646;2023-01-19T15:40:40;14.20;;;10.23;;
10641;SDS011;5369;49.586;8.646;2023-01-19T15:43:08;14.63;;;9.90;;
10641;SDS011;5369;49.586;8.646;2023-01-19T15:45:42;19.47;;;12.00;;
10641;SDS011;5369;49.586;8.646;2023-01-19T15:48:11;15.13;;;9.83;;